sensor_id;sensor_type;location;lat;lon;timestamp;P1;durP1;ratioP1;P2;durP2;ratioP2
35150;SDS011;55720;51.972;4.624;2023-09-12T00:00:00;69.15;;;29.65;;
35150;SDS011;55720;51.972;4.624;2023-09-12T00:02:25;67.63;;;29.83;;
35150;SDS011;55720;51.972;4.624;2023-09-12T00:04:50;63.43;;;28.97;;
35150;SDS011;55720;51.972;4.624;2023-09-12T00:07:15;73.33;;;28.83;;
35150;SDS011;55720;51.972;4.624;2023-09-12T00:09:41;62.20;;;27.63;;
35150;SDS011;55720;51.972;4.624;2023-09-12T00:12:06;62.00;;;27.10;;
35150;SDS011;55720;51.972;4.624;2023-09-12T00:14:31;57.85;;;26.30;;
35150;SDS011;55720;51.972;4.624;2023-09-12T00:16:56;61.20;;;27.23;;
35150;SDS011;55720;51.972;4.624;2023-09-12T00:19:22;58.40;;;25.27;;
35150;SDS011;55720;51.972;4.624;2023-09-12T00:21:47;59.87;;;25.10;;
35150;SDS011;55720;51.972;4.624;2023-09-12T00:24:12;53.87;;;25.97;;
35150;SDS011;55720;51.972;4.624;2023-09-12T00:26:37;58.60;;;26.03;;
35150;SDS011;55720;51.972;4.624;2023-09-12T00:29:02;62.57;;;26.43;;
35150;SDS011;55720;51.972;4.624;2023-09-12T00:31:28;51.30;;;23.17;;
35150;SDS011;55720;51.972;4.624;2023-09-12T00:33:53;58.93;;;26.07;;
35150;SDS011;55720;51.972;4.624;2023-09-12T00:36:18;57.43;;;25.63;;
35150;SDS011;55720;51.972;4.624;2023-09-12T00:38:43;54.27;;;25.30;;
35150;SDS011;55720;51.972;4.624;2023-09-12T00:41:08;66.93;;;26.17;;
35150;SDS011;55720;51.972;4.624;2023-09-12T00:43:34;66.10;;;27.93;;
35150;SDS011;55720;51.972;4.624;2023-09-12T00:45:59;59.83;;;25.93;;
35150;SDS011;55720;51.972;4.624;2023-09-12T00:48:24;57.67;;;24.90;;
35150;SDS011;55720;51.972;4.624;2023-09-12T00:50:49;63.60;;;25.73;;
35150;SDS011;55720;51.972;4.624;2023-09-12T00:53:16;54.45;;;24.55;;
35150;SDS011;55720;51.972;4.624;2023-09-12T00:55:44;50.67;;;24.95;;
35150;SDS011;55720;51.972;4.624;2023-09-12T00:58:10;61.30;;;24.73;;
35150;SDS011;55720;51.972;4.624;2023-09-12T01:00:35;57.38;;;25.40;;
35150;SDS011;55720;51.972;4.624;2023-09-12T01:03:01;51.40;;;23.70;;
35150;SDS011;55720;51.972;4.624;2023-09-12T01:05:26;56.78;;;24.02;;
35150;SDS011;55720;51.972;4.624;2023-09-12T01:07:52;58.53;;;25.50;;
35150;SDS011;55720;51.972;4.624;2023-09-12T01:10:17;69.68;;;28.23;;
35150;SDS011;55720;51.972;4.624;2023-09-12T01:12:42;72.32;;;28.00;;
35150;SDS011;55720;51.972;4.624;2023-09-12T01:15:08;85.38;;;29.38;;
35150;SDS011;55720;51.972;4.624;2023-09-12T01:17:39;74.40;;;28.70;;
35150;SDS011;55720;51.972;4.624;2023-09-12T01:20:04;78.03;;;28.70;;
35150;SDS011;55720;51.972;4.624;2023-09-12T01:27:49;92.50;;;32.55;;
35150;SDS011;55720;51.972;4.624;2023-09-12T01:30:17;80.72;;;29.27;;
35150;SDS011;55720;51.972;4.624;2023-09-12T01:32:42;74.97;;;29.40;;
35150;SDS011;55720;51.972;4.624;2023-09-12T01:35:08;77.82;;;29.75;;
35150;SDS011;55720;51.972;4.624;2023-09-12T01:37:33;70.70;;;27.40;;
35150;SDS011;55720;51.972;4.624;2023-09-12T01:39:59;79.72;;;28.38;;
35150;SDS011;55720;51.972;4.624;2023-09-12T01:42:24;69.80;;;25.98;;
35150;SDS011;55720;51.972;4.624;2023-09-12T01:44:54;73.03;;;28.55;;
35150;SDS011;55720;51.972;4.624;2023-09-12T01:47:20;63.95;;;25.33;;
35150;SDS011;55720;51.972;4.624;2023-09-12T01:49:47;80.95;;;26.77;;
35150;SDS011;55720;51.972;4.624;2023-09-12T01:52:13;74.15;;;27.60;;
35150;SDS011;55720;51.972;4.624;2023-09-12T01:54:38;76.07;;;27.55;;
35150;SDS011;55720;51.972;4.624;2023-09-12T01:57:05;68.75;;;26.75;;
35150;SDS011;55720;51.972;4.624;2023-09-12T01:59:31;63.63;;;25.83;;
35150;SDS011;55720;51.972;4.624;2023-09-12T02:01:56;62.63;;;24.52;;
35150;SDS011;55720;51.972;4.624;2023-09-12T02:04:21;67.90;;;26.53;;
35150;SDS011;55720;51.972;4.624;2023-09-12T02:06:47;60.17;;;24.77;;
35150;SDS011;55720;51.972;4.624;2023-09-12T02:09:12;64.27;;;24.50;;
35150;SDS011;55720;51.972;4.624;2023-09-12T02:11:37;51.57;;;22.37;;
35150;SDS011;55720;51.972;4.624;2023-09-12T02:14:02;54.27;;;22.27;;
35150;SDS011;55720;51.972;4.624;2023-09-12T02:16:28;51.47;;;21.25;;
35150;SDS011;55720;51.972;4.624;2023-09-12T02:18:54;46.60;;;20.25;;
35150;SDS011;55720;51.972;4.624;2023-09-12T02:21:19;42.03;;;18.07;;
35150;SDS011;55720;51.972;4.624;2023-09-12T02:23:44;40.05;;;19.23;;
35150;SDS011;55720;51.972;4.624;2023-09-12T02:26:10;52.00;;;19.83;;
35150;SDS011;55720;51.972;4.624;2023-09-12T02:28:35;45.03;;;19.70;;
35150;SDS011;55720;51.972;4.624;2023-09-12T02:31:00;45.60;;;19.83;;
35150;SDS011;55720;51.972;4.624;2023-09-12T02:33:25;56.60;;;23.25;;
35150;SDS011;55720;51.972;4.624;2023-09-12T02:35:50;55.92;;;21.75;;
35150;SDS011;55720;51.972;4.624;2023-09-12T02:38:17;66.63;;;25.37;;
35150;SDS011;55720;51.972;4.624;2023-09-12T02:40:42;69.22;;;23.77;;
35150;SDS011;55720;51.972;4.624;2023-09-12T02:43:07;73.13;;;22.43;;
35150;SDS011;55720;51.972;4.624;2023-09-12T02:45:33;64.30;;;23.42;;
35150;SDS011;55720;51.972;4.624;2023-09-12T02:47:58;62.20;;;23.97;;
35150;SDS011;55720;51.972;4.624;2023-09-12T02:50:23;69.70;;;23.97;;
35150;SDS011;55720;51.972;4.624;2023-09-12T02:52:48;68.17;;;24.77;;
35150;SDS011;55720;51.972;4.624;2023-09-12T02:55:13;92.20;;;26.80;;
35150;SDS011;55720;51.972;4.624;2023-09-12T02:57:39;82.80;;;26.33;;
35150;SDS011;55720;51.972;4.624;2023-09-12T03:00:04;105.17;;;29.03;;
35150;SDS011;55720;51.972;4.624;2023-09-12T03:02:32;87.45;;;28.13;;
35150;SDS011;55720;51.972;4.624;2023-09-12T03:04:57;99.83;;;29.73;;
35150;SDS011;55720;51.972;4.624;2023-09-12T03:07:22;83.27;;;28.50;;
35150;SDS011;55720;51.972;4.624;2023-09-12T03:09:48;92.57;;;28.07;;
35150;SDS011;55720;51.972;4.624;2023-09-12T03:12:14;102.15;;;28.58;;
35150;SDS011;55720;51.972;4.624;2023-09-12T03:14:39;99.97;;;29.80;;
35150;SDS011;55720;51.972;4.624;2023-09-12T03:17:05;89.97;;;28.07;;
35150;SDS011;55720;51.972;4.624;2023-09-12T03:19:30;80.87;;;24.87;;
35150;SDS011;55720;51.972;4.624;2023-09-12T03:21:55;74.17;;;23.27;;
35150;SDS011;55720;51.972;4.624;2023-09-12T03:24:20;65.13;;;21.40;;
35150;SDS011;55720;51.972;4.624;2023-09-12T03:26:48;71.90;;;22.42;;
35150;SDS011;55720;51.972;4.624;2023-09-12T03:29:14;66.57;;;23.60;;
35150;SDS011;55720;51.972;4.624;2023-09-12T03:31:39;69.13;;;22.70;;
35150;SDS011;55720;51.972;4.624;2023-09-12T03:34:04;71.95;;;22.67;;
35150;SDS011;55720;51.972;4.624;2023-09-12T03:36:29;69.87;;;22.33;;
35150;SDS011;55720;51.972;4.624;2023-09-12T03:38:55;68.43;;;22.43;;
35150;SDS011;55720;51.972;4.624;2023-09-12T03:41:20;66.78;;;23.73;;
35150;SDS011;55720;51.972;4.624;2023-09-12T03:43:50;77.93;;;25.25;;
35150;SDS011;55720;51.972;4.624;2023-09-12T03:46:15;82.43;;;25.90;;
35150;SDS011;55720;51.972;4.624;2023-09-12T03:48:40;88.43;;;27.53;;
35150;SDS011;55720;51.972;4.624;2023-09-12T03:51:05;101.37;;;29.33;;
35150;SDS011;55720;51.972;4.624;2023-09-12T03:53:30;85.60;;;26.97;;
35150;SDS011;55720;51.972;4.624;2023-09-12T03:55:57;102.55;;;29.10;;
35150;SDS011;55720;51.972;4.624;2023-09-12T03:58:22;98.05;;;30.30;;
35150;SDS011;55720;51.972;4.624;2023-09-12T04:00:47;93.82;;;29.08;;
35150;SDS011;55720;51.972;4.624;2023-09-12T04:03:12;97.77;;;30.07;;
35150;SDS011;55720;51.972;4.624;2023-09-12T04:05:38;98.10;;;28.20;;
35150;SDS011;55720;51.972;4.624;2023-09-12T04:08:03;107.82;;;29.33;;
35150;SDS011;55720;51.972;4.624;2023-09-12T04:10:28;97.93;;;28.30;;
35150;SDS011;55720;51.972;4.624;2023-09-12T04:12:54;99.73;;;28.40;;
35150;SDS011;55720;51.972;4.624;2023-09-12T04:15:19;109.50;;;29.73;;
35150;SDS011;55720;51.972;4.624;2023-09-12T04:17:44;112.45;;;29.35;;
35150;SDS011;55720;51.972;4.624;2023-09-12T04:20:09;99.63;;;28.43;;
35150;SDS011;55720;51.972;4.624;2023-09-12T04:22:38;102.47;;;29.13;;
35150;SDS011;55720;51.972;4.624;2023-09-12T04:25:04;100.47;;;27.73;;
35150;SDS011;55720;51.972;4.624;2023-09-12T04:27:29;103.35;;;28.50;;
35150;SDS011;55720;51.972;4.624;2023-09-12T04:29:54;114.07;;;28.77;;
35150;SDS011;55720;51.972;4.624;2023-09-12T04:32:20;93.80;;;27.60;;
35150;SDS011;55720;51.972;4.624;2023-09-12T04:34:48;104.88;;;28.20;;
35150;SDS011;55720;51.972;4.624;2023-09-12T04:37:13;99.55;;;28.15;;
35150;SDS011;55720;51.972;4.624;2023-09-12T04:39:39;101.70;;;28.83;;
35150;SDS011;55720;51.972;4.624;2023-09-12T04:42:04;112.23;;;28.57;;
35150;SDS011;55720;51.972;4.624;2023-09-12T04:44:34;108.22;;;27.88;;
35150;SDS011;55720;51.972;4.624;2023-09-12T04:46:59;108.75;;;28.00;;
35150;SDS011;55720;51.972;4.624;2023-09-12T04:49:24;104.30;;;29.43;;
35150;SDS011;55720;51.972;4.624;2023-09-12T04:51:49;102.40;;;26.85;;
35150;SDS011;55720;51.972;4.624;2023-09-12T04:54:15;98.93;;;28.90;;
35150;SDS011;55720;51.972;4.624;2023-09-12T04:56:40;99.90;;;28.58;;
35150;SDS011;55720;51.972;4.624;2023-09-12T04:59:05;106.28;;;29.63;;
35150;SDS011;55720;51.972;4.624;2023-09-12T05:01:31;102.45;;;29.52;;
35150;SDS011;55720;51.972;4.624;2023-09-12T05:03:57;98.75;;;26.63;;
35150;SDS011;55720;51.972;4.624;2023-09-12T05:06:22;94.95;;;28.10;;
35150;SDS011;55720;51.972;4.624;2023-09-12T05:08:47;98.80;;;28.30;;
35150;SDS011;55720;51.972;4.624;2023-09-12T05:11:12;102.65;;;28.52;;
35150;SDS011;55720;51.972;4.624;2023-09-12T05:13:38;86.67;;;27.50;;
35150;SDS011;55720;51.972;4.624;2023-09-12T05:16:03;88.03;;;29.53;;
35150;SDS011;55720;51.972;4.624;2023-09-12T05:18:28;86.85;;;28.40;;
35150;SDS011;55720;51.972;4.624;2023-09-12T05:20:53;104.27;;;28.03;;
35150;SDS011;55720;51.972;4.624;2023-09-12T05:23:19;88.82;;;27.60;;
35150;SDS011;55720;51.972;4.624;2023-09-12T05:25:44;91.13;;;29.73;;
35150;SDS011;55720;51.972;4.624;2023-09-12T05:28:09;77.27;;;27.17;;
35150;SDS011;55720;51.972;4.624;2023-09-12T05:30:35;78.63;;;26.20;;
35150;SDS011;55720;51.972;4.624;2023-09-12T05:33:00;81.20;;;26.88;;
35150;SDS011;55720;51.972;4.624;2023-09-12T05:35:25;81.80;;;27.50;;
35150;SDS011;55720;51.972;4.624;2023-09-12T05:37:51;89.50;;;28.70;;
35150;SDS011;55720;51.972;4.624;2023-09-12T05:40:16;91.57;;;27.63;;
35150;SDS011;55720;51.972;4.624;2023-09-12T05:42:42;86.63;;;27.05;;
35150;SDS011;55720;51.972;4.624;2023-09-12T05:45:07;92.35;;;28.17;;
35150;SDS011;55720;51.972;4.624;2023-09-12T05:47:32;83.97;;;28.10;;
35150;SDS011;55720;51.972;4.624;2023-09-12T05:49:58;88.87;;;29.90;;
35150;SDS011;55720;51.972;4.624;2023-09-12T05:52:24;95.40;;;29.77;;
35150;SDS011;55720;51.972;4.624;2023-09-12T05:54:49;92.35;;;29.88;;
35150;SDS011;55720;51.972;4.624;2023-09-12T05:57:15;98.78;;;30.83;;
35150;SDS011;55720;51.972;4.624;2023-09-12T05:59:41;95.68;;;29.60;;
35150;SDS011;55720;51.972;4.624;2023-09-12T06:02:06;100.93;;;31.87;;
35150;SDS011;55720;51.972;4.624;2023-09-12T06:04:34;107.25;;;31.15;;
35150;SDS011;55720;51.972;4.624;2023-09-12T06:07:00;106.00;;;31.83;;
35150;SDS011;55720;51.972;4.624;2023-09-12T06:09:26;110.30;;;34.28;;
35150;SDS011;55720;51.972;4.624;2023-09-12T06:11:51;117.47;;;35.73;;
35150;SDS011;55720;51.972;4.624;2023-09-12T06:14:16;108.25;;;33.42;;
35150;SDS011;55720;51.972;4.624;2023-09-12T06:16:41;110.17;;;33.67;;
35150;SDS011;55720;51.972;4.624;2023-09-12T06:19:07;101.23;;;32.07;;
35150;SDS011;55720;51.972;4.624;2023-09-12T06:21:32;110.20;;;33.00;;
35150;SDS011;55720;51.972;4.624;2023-09-12T06:26:51;102.57;;;33.28;;
35150;SDS011;55720;51.972;4.624;2023-09-12T06:29:17;100.85;;;33.13;;
35150;SDS011;55720;51.972;4.624;2023-09-12T06:31:42;107.03;;;32.77;;
35150;SDS011;55720;51.972;4.624;2023-09-12T06:34:08;100.87;;;32.37;;
35150;SDS011;55720;51.972;4.624;2023-09-12T06:36:33;102.53;;;33.85;;
35150;SDS011;55720;51.972;4.624;2023-09-12T06:38:58;103.03;;;33.63;;
35150;SDS011;55720;51.972;4.624;2023-09-12T06:41:24;115.03;;;34.30;;
35150;SDS011;55720;51.972;4.624;2023-09-12T06:43:49;104.60;;;35.67;;
35150;SDS011;55720;51.972;4.624;2023-09-12T06:46:14;106.72;;;34.70;;
35150;SDS011;55720;51.972;4.624;2023-09-12T06:48:42;103.45;;;34.83;;
35150;SDS011;55720;51.972;4.624;2023-09-12T06:51:08;100.93;;;33.40;;
35150;SDS011;55720;51.972;4.624;2023-09-12T06:53:33;94.28;;;33.63;;
35150;SDS011;55720;51.972;4.624;2023-09-12T06:55:58;95.43;;;33.70;;
35150;SDS011;55720;51.972;4.624;2023-09-12T06:58:24;86.65;;;32.70;;
35150;SDS011;55720;51.972;4.624;2023-09-12T07:00:49;90.25;;;32.25;;
35150;SDS011;55720;51.972;4.624;2023-09-12T07:03:14;88.75;;;31.77;;
35150;SDS011;55720;51.972;4.624;2023-09-12T07:05:41;81.73;;;31.47;;
35150;SDS011;55720;51.972;4.624;2023-09-12T07:08:06;75.65;;;29.40;;
35150;SDS011;55720;51.972;4.624;2023-09-12T07:10:31;75.57;;;29.30;;
35150;SDS011;55720;51.972;4.624;2023-09-12T07:12:57;74.43;;;29.07;;
35150;SDS011;55720;51.972;4.624;2023-09-12T07:15:22;72.57;;;29.00;;
35150;SDS011;55720;51.972;4.624;2023-09-12T07:17:47;66.77;;;29.13;;
35150;SDS011;55720;51.972;4.624;2023-09-12T07:20:12;74.57;;;31.75;;
35150;SDS011;55720;51.972;4.624;2023-09-12T07:22:38;66.90;;;29.55;;
35150;SDS011;55720;51.972;4.624;2023-09-12T07:25:05;65.32;;;28.30;;
35150;SDS011;55720;51.972;4.624;2023-09-12T07:27:30;65.45;;;30.08;;
35150;SDS011;55720;51.972;4.624;2023-09-12T07:29:56;62.63;;;29.17;;
35150;SDS011;55720;51.972;4.624;2023-09-12T07:32:21;60.77;;;27.00;;
35150;SDS011;55720;51.972;4.624;2023-09-12T07:34:46;57.75;;;26.65;;
35150;SDS011;55720;51.972;4.624;2023-09-12T07:37:13;60.28;;;28.58;;
35150;SDS011;55720;51.972;4.624;2023-09-12T07:39:38;62.90;;;28.95;;
35150;SDS011;55720;51.972;4.624;2023-09-12T07:42:04;62.03;;;29.60;;
35150;SDS011;55720;51.972;4.624;2023-09-12T07:44:29;59.90;;;30.67;;
35150;SDS011;55720;51.972;4.624;2023-09-12T07:46:54;59.67;;;29.73;;
35150;SDS011;55720;51.972;4.624;2023-09-12T07:49:20;60.13;;;28.80;;
35150;SDS011;55720;51.972;4.624;2023-09-12T07:51:45;63.20;;;31.13;;
35150;SDS011;55720;51.972;4.624;2023-09-12T07:54:10;64.53;;;31.77;;
35150;SDS011;55720;51.972;4.624;2023-09-12T07:56:35;64.30;;;30.43;;
35150;SDS011;55720;51.972;4.624;2023-09-12T07:59:00;64.87;;;30.43;;
35150;SDS011;55720;51.972;4.624;2023-09-12T08:01:26;59.23;;;29.73;;
35150;SDS011;55720;51.972;4.624;2023-09-12T08:03:52;64.03;;;31.20;;
35150;SDS011;55720;51.972;4.624;2023-09-12T08:06:17;56.70;;;31.15;;
35150;SDS011;55720;51.972;4.624;2023-09-12T08:08:43;52.13;;;29.80;;
35150;SDS011;55720;51.972;4.624;2023-09-12T08:11:08;59.47;;;29.70;;
35150;SDS011;55720;51.972;4.624;2023-09-12T08:13:33;65.37;;;31.73;;
35150;SDS011;55720;51.972;4.624;2023-09-12T08:15:58;62.00;;;30.67;;
35150;SDS011;55720;51.972;4.624;2023-09-12T08:18:29;57.78;;;29.98;;
35150;SDS011;55720;51.972;4.624;2023-09-12T08:20:54;50.58;;;28.23;;
35150;SDS011;55720;51.972;4.624;2023-09-12T08:23:19;51.10;;;27.85;;
35150;SDS011;55720;51.972;4.624;2023-09-12T08:25:45;49.20;;;26.83;;
35150;SDS011;55720;51.972;4.624;2023-09-12T08:28:10;55.90;;;28.00;;
35150;SDS011;55720;51.972;4.624;2023-09-12T08:30:35;46.22;;;25.98;;
35150;SDS011;55720;51.972;4.624;2023-09-12T08:33:00;39.90;;;24.03;;
35150;SDS011;55720;51.972;4.624;2023-09-12T08:35:28;36.20;;;21.75;;
35150;SDS011;55720;51.972;4.624;2023-09-12T08:37:54;36.37;;;21.93;;
35150;SDS011;55720;51.972;4.624;2023-09-12T08:40:19;39.50;;;22.88;;
35150;SDS011;55720;51.972;4.624;2023-09-12T08:42:44;41.83;;;25.42;;
35150;SDS011;55720;51.972;4.624;2023-09-12T08:45:16;41.00;;;24.83;;
35150;SDS011;55720;51.972;4.624;2023-09-12T08:47:42;39.22;;;23.50;;
35150;SDS011;55720;51.972;4.624;2023-09-12T08:50:11;41.33;;;24.60;;
35150;SDS011;55720;51.972;4.624;2023-09-12T08:55:03;36.87;;;22.70;;
35150;SDS011;55720;51.972;4.624;2023-09-12T08:57:29;42.65;;;25.98;;
35150;SDS011;55720;51.972;4.624;2023-09-12T08:59:55;43.00;;;25.17;;
35150;SDS011;55720;51.972;4.624;2023-09-12T09:02:20;40.35;;;25.05;;
35150;SDS011;55720;51.972;4.624;2023-09-12T09:04:46;41.35;;;25.45;;
35150;SDS011;55720;51.972;4.624;2023-09-12T09:07:11;43.28;;;25.40;;
35150;SDS011;55720;51.972;4.624;2023-09-12T09:09:38;39.13;;;25.63;;
35150;SDS011;55720;51.972;4.624;2023-09-12T09:12:06;43.13;;;26.07;;
35150;SDS011;55720;51.972;4.624;2023-09-12T09:14:31;43.17;;;26.60;;
35150;SDS011;55720;51.972;4.624;2023-09-12T09:16:57;40.47;;;25.13;;
35150;SDS011;55720;51.972;4.624;2023-09-12T09:19:23;44.53;;;26.27;;
35150;SDS011;55720;51.972;4.624;2023-09-12T09:22:04;39.45;;;24.55;;
35150;SDS011;55720;51.972;4.624;2023-09-12T09:24:30;45.83;;;25.88;;
35150;SDS011;55720;51.972;4.624;2023-09-12T09:26:55;38.07;;;25.67;;
35150;SDS011;55720;51.972;4.624;2023-09-12T09:29:25;39.72;;;24.75;;
35150;SDS011;55720;51.972;4.624;2023-09-12T09:31:50;41.17;;;24.70;;
35150;SDS011;55720;51.972;4.624;2023-09-12T09:34:19;41.92;;;25.10;;
35150;SDS011;55720;51.972;4.624;2023-09-12T09:36:50;40.35;;;25.55;;
35150;SDS011;55720;51.972;4.624;2023-09-12T09:39:16;44.25;;;27.83;;
35150;SDS011;55720;51.972;4.624;2023-09-12T09:41:41;44.13;;;27.30;;
35150;SDS011;55720;51.972;4.624;2023-09-12T09:44:07;36.70;;;25.33;;
35150;SDS011;55720;51.972;4.624;2023-09-12T09:46:32;43.05;;;27.50;;
35150;SDS011;55720;51.972;4.624;2023-09-12T09:48:58;46.17;;;27.30;;
35150;SDS011;55720;51.972;4.624;2023-09-12T09:51:24;42.78;;;26.73;;
35150;SDS011;55720;51.972;4.624;2023-09-12T09:53:53;42.38;;;26.13;;
35150;SDS011;55720;51.972;4.624;2023-09-12T09:56:23;41.63;;;25.13;;
35150;SDS011;55720;51.972;4.624;2023-09-12T09:58:52;40.78;;;24.17;;
35150;SDS011;55720;51.972;4.624;2023-09-12T10:01:19;41.42;;;24.85;;
35150;SDS011;55720;51.972;4.624;2023-09-12T10:03:47;35.28;;;24.50;;
35150;SDS011;55720;51.972;4.624;2023-09-12T10:06:13;32.50;;;23.92;;
35150;SDS011;55720;51.972;4.624;2023-09-12T10:08:39;38.58;;;24.23;;
35150;SDS011;55720;51.972;4.624;2023-09-12T10:11:05;42.10;;;24.88;;
35150;SDS011;55720;51.972;4.624;2023-09-12T10:13:31;39.28;;;24.17;;
35150;SDS011;55720;51.972;4.624;2023-09-12T10:15:58;36.83;;;25.00;;
35150;SDS011;55720;51.972;4.624;2023-09-12T10:18:25;36.58;;;23.75;;
35150;SDS011;55720;51.972;4.624;2023-09-12T10:20:52;32.75;;;23.67;;
35150;SDS011;55720;51.972;4.624;2023-09-12T10:23:22;38.10;;;20.42;;
35150;SDS011;55720;51.972;4.624;2023-09-12T10:25:48;34.20;;;20.73;;
35150;SDS011;55720;51.972;4.624;2023-09-12T10:28:14;30.02;;;20.73;;
35150;SDS011;55720;51.972;4.624;2023-09-12T10:30:39;31.48;;;19.48;;
35150;SDS011;55720;51.972;4.624;2023-09-12T10:33:05;27.65;;;19.30;;
35150;SDS011;55720;51.972;4.624;2023-09-12T10:35:30;30.15;;;18.58;;
35150;SDS011;55720;51.972;4.624;2023-09-12T10:37:59;31.98;;;18.33;;
35150;SDS011;55720;51.972;4.624;2023-09-12T10:40:24;25.02;;;17.50;;
35150;SDS011;55720;51.972;4.624;2023-09-12T10:42:51;25.33;;;18.17;;
35150;SDS011;55720;51.972;4.624;2023-09-12T10:45:16;29.50;;;18.15;;
35150;SDS011;55720;51.972;4.624;2023-09-12T10:47:41;25.52;;;18.40;;
35150;SDS011;55720;51.972;4.624;2023-09-12T10:50:07;28.60;;;19.73;;
35150;SDS011;55720;51.972;4.624;2023-09-12T10:52:33;28.95;;;20.50;;
35150;SDS011;55720;51.972;4.624;2023-09-12T10:55:01;30.17;;;22.00;;
35150;SDS011;55720;51.972;4.624;2023-09-12T10:57:29;29.55;;;20.83;;
35150;SDS011;55720;51.972;4.624;2023-09-12T11:02:39;27.98;;;19.02;;
35150;SDS011;55720;51.972;4.624;2023-09-12T11:05:05;27.38;;;19.13;;
35150;SDS011;55720;51.972;4.624;2023-09-12T11:12:41;23.85;;;16.75;;
35150;SDS011;55720;51.972;4.624;2023-09-12T11:15:06;23.00;;;16.73;;
35150;SDS011;55720;51.972;4.624;2023-09-12T11:17:38;19.48;;;14.88;;
35150;SDS011;55720;51.972;4.624;2023-09-12T11:20:04;23.88;;;16.92;;
35150;SDS011;55720;51.972;4.624;2023-09-12T11:22:35;23.73;;;16.35;;
35150;SDS011;55720;51.972;4.624;2023-09-12T11:25:02;25.08;;;16.00;;
35150;SDS011;55720;51.972;4.624;2023-09-12T11:27:31;29.77;;;16.83;;
35150;SDS011;55720;51.972;4.624;2023-09-12T11:30:03;28.17;;;16.98;;
35150;SDS011;55720;51.972;4.624;2023-09-12T11:32:32;22.88;;;16.08;;
35150;SDS011;55720;51.972;4.624;2023-09-12T11:34:58;21.85;;;16.75;;
35150;SDS011;55720;51.972;4.624;2023-09-12T11:37:27;25.48;;;17.55;;
35150;SDS011;55720;51.972;4.624;2023-09-12T11:39:54;26.45;;;18.23;;
35150;SDS011;55720;51.972;4.624;2023-09-12T11:42:19;26.67;;;18.33;;
35150;SDS011;55720;51.972;4.624;2023-09-12T11:44:47;27.33;;;19.00;;
35150;SDS011;55720;51.972;4.624;2023-09-12T11:47:13;25.33;;;19.00;;
35150;SDS011;55720;51.972;4.624;2023-09-12T11:49:38;26.37;;;18.73;;
35150;SDS011;55720;51.972;4.624;2023-09-12T11:52:08;30.83;;;19.90;;
35150;SDS011;55720;51.972;4.624;2023-09-12T11:54:33;27.08;;;18.00;;
35150;SDS011;55720;51.972;4.624;2023-09-12T11:56:58;29.30;;;18.43;;
35150;SDS011;55720;51.972;4.624;2023-09-12T11:59:30;27.27;;;19.58;;
35150;SDS011;55720;51.972;4.624;2023-09-12T12:01:56;25.45;;;18.73;;
35150;SDS011;55720;51.972;4.624;2023-09-12T12:04:22;32.00;;;20.08;;
35150;SDS011;55720;51.972;4.624;2023-09-12T12:06:48;23.23;;;16.50;;
35150;SDS011;55720;51.972;4.624;2023-09-12T12:09:13;16.85;;;12.63;;
35150;SDS011;55720;51.972;4.624;2023-09-12T12:11:39;16.30;;;12.23;;
35150;SDS011;55720;51.972;4.624;2023-09-12T12:14:16;12.32;;;10.85;;
35150;SDS011;55720;51.972;4.624;2023-09-12T12:16:42;11.90;;;9.68;;
35150;SDS011;55720;51.972;4.624;2023-09-12T12:19:08;9.23;;;8.32;;
35150;SDS011;55720;51.972;4.624;2023-09-12T12:21:34;9.10;;;7.45;;
35150;SDS011;55720;51.972;4.624;2023-09-12T12:23:59;10.10;;;6.90;;
35150;SDS011;55720;51.972;4.624;2023-09-12T12:26:25;10.63;;;7.85;;
35150;SDS011;55720;51.972;4.624;2023-09-12T12:28:51;12.52;;;9.75;;
35150;SDS011;55720;51.972;4.624;2023-09-12T12:31:17;13.75;;;10.02;;
35150;SDS011;55720;51.972;4.624;2023-09-12T12:33:47;11.47;;;9.83;;
35150;SDS011;55720;51.972;4.624;2023-09-12T12:36:12;13.40;;;9.77;;
35150;SDS011;55720;51.972;4.624;2023-09-12T12:38:38;11.53;;;8.70;;
35150;SDS011;55720;51.972;4.624;2023-09-12T12:41:04;11.27;;;9.60;;
35150;SDS011;55720;51.972;4.624;2023-09-12T12:43:30;12.47;;;9.73;;
35150;SDS011;55720;51.972;4.624;2023-09-12T12:45:56;18.83;;;11.68;;
35150;SDS011;55720;51.972;4.624;2023-09-12T12:48:31;12.13;;;10.02;;
35150;SDS011;55720;51.972;4.624;2023-09-12T12:50:57;12.65;;;9.98;;
35150;SDS011;55720;51.972;4.624;2023-09-12T12:56:03;15.18;;;10.77;;
35150;SDS011;55720;51.972;4.624;2023-09-12T12:58:29;16.00;;;11.17;;
35150;SDS011;55720;51.972;4.624;2023-09-12T13:00:54;16.40;;;11.40;;
35150;SDS011;55720;51.972;4.624;2023-09-12T13:03:19;13.40;;;11.17;;
35150;SDS011;55720;51.972;4.624;2023-09-12T13:05:44;18.63;;;12.43;;
35150;SDS011;55720;51.972;4.624;2023-09-12T13:08:10;20.20;;;12.70;;
35150;SDS011;55720;51.972;4.624;2023-09-12T13:10:35;19.63;;;13.10;;
35150;SDS011;55720;51.972;4.624;2023-09-12T13:13:02;20.35;;;11.45;;
35150;SDS011;55720;51.972;4.624;2023-09-12T13:15:27;12.43;;;9.68;;
35150;SDS011;55720;51.972;4.624;2023-09-12T13:17:53;14.10;;;10.17;;
35150;SDS011;55720;51.972;4.624;2023-09-12T13:20:18;11.77;;;8.90;;
35150;SDS011;55720;51.972;4.624;2023-09-12T13:22:43;8.53;;;7.73;;
35150;SDS011;55720;51.972;4.624;2023-09-12T13:25:09;8.05;;;7.25;;
35150;SDS011;55720;51.972;4.624;2023-09-12T13:27:34;12.38;;;10.63;;
35150;SDS011;55720;51.972;4.624;2023-09-12T13:29:59;13.05;;;11.43;;
35150;SDS011;55720;51.972;4.624;2023-09-12T13:32:24;14.67;;;11.90;;
35150;SDS011;55720;51.972;4.624;2023-09-12T13:34:50;14.87;;;12.37;;
35150;SDS011;55720;51.972;4.624;2023-09-12T13:37:15;17.70;;;11.60;;
35150;SDS011;55720;51.972;4.624;2023-09-12T13:39:41;13.35;;;12.00;;
35150;SDS011;55720;51.972;4.624;2023-09-12T13:42:12;12.82;;;11.43;;
35150;SDS011;55720;51.972;4.624;2023-09-12T13:44:39;6.30;;;5.05;;
35150;SDS011;55720;51.972;4.624;2023-09-12T13:47:04;6.18;;;5.10;;
35150;SDS011;55720;51.972;4.624;2023-09-12T13:49:29;6.47;;;5.80;;
35150;SDS011;55720;51.972;4.624;2023-09-12T13:51:55;6.70;;;6.10;;
35150;SDS011;55720;51.972;4.624;2023-09-12T13:54:20;10.67;;;7.10;;
35150;SDS011;55720;51.972;4.624;2023-09-12T13:56:45;6.97;;;6.33;;
35150;SDS011;55720;51.972;4.624;2023-09-12T13:59:10;6.37;;;5.83;;
35150;SDS011;55720;51.972;4.624;2023-09-12T14:01:37;8.27;;;5.93;;
35150;SDS011;55720;51.972;4.624;2023-09-12T14:04:02;6.03;;;5.57;;
35150;SDS011;55720;51.972;4.624;2023-09-12T14:06:27;6.45;;;5.03;;
35150;SDS011;55720;51.972;4.624;2023-09-12T14:08:53;7.30;;;4.68;;
35150;SDS011;55720;51.972;4.624;2023-09-12T14:11:18;7.27;;;5.33;;
35150;SDS011;55720;51.972;4.624;2023-09-12T14:13:43;7.53;;;4.90;;
35150;SDS011;55720;51.972;4.624;2023-09-12T14:16:08;5.03;;;4.37;;
35150;SDS011;55720;51.972;4.624;2023-09-12T14:18:34;8.20;;;4.72;;
35150;SDS011;55720;51.972;4.624;2023-09-12T14:20:59;5.67;;;4.20;;
35150;SDS011;55720;51.972;4.624;2023-09-12T14:23:24;6.93;;;4.90;;
35150;SDS011;55720;51.972;4.624;2023-09-12T14:25:49;4.68;;;4.28;;
35150;SDS011;55720;51.972;4.624;2023-09-12T14:28:15;7.47;;;4.17;;
35150;SDS011;55720;51.972;4.624;2023-09-12T14:30:40;6.77;;;4.20;;
35150;SDS011;55720;51.972;4.624;2023-09-12T14:33:09;4.63;;;4.22;;
35150;SDS011;55720;51.972;4.624;2023-09-12T14:35:34;5.93;;;3.90;;